createdAt,value
2019-04-20T00:01:56.139Z,27.70
2019-04-20T00:04:49.372Z,27.70
2019-04-20T00:07:43.935Z,27.70
2019-04-20T00:10:47.621Z,27.70
2019-04-20T00:13:47.017Z,27.70
2019-04-20T00:16:31.616Z,27.60
2019-04-20T00:19:35.378Z,27.60
2019-04-20T00:22:34.414Z,27.60
2019-04-20T00:26:06.799Z,27.60
2019-04-20T00:29:06.978Z,27.60
2019-04-20T00:31:56.562Z,27.60
2019-04-20T00:34:44.108Z,27.60
2019-04-20T00:37:38.054Z,27.50
2019-04-20T00:40:32.977Z,27.60
2019-04-20T00:43:32.311Z,27.60
2019-04-20T00:46:34.017Z,27.50
2019-04-20T00:49:34.741Z,27.50
2019-04-20T00:52:31.364Z,27.50
2019-04-20T00:55:12.814Z,27.50
2019-04-20T00:58:17.380Z,27.50
2019-04-20T01:01:25.093Z,27.50
2019-04-20T01:04:20.485Z,27.50
2019-04-20T01:07:24.317Z,27.50
2019-04-20T01:10:14.918Z,27.60
2019-04-20T01:13:15.099Z,27.50
2019-04-20T01:16:18.494Z,27.60
2019-04-20T01:19:01.113Z,27.60
2019-04-20T01:22:03.742Z,27.60
2019-04-20T01:24:53.679Z,27.60
2019-04-20T01:28:17.646Z,27.60
2019-04-20T01:30:58.500Z,27.60
2019-04-20T01:33:50.803Z,27.60
2019-04-20T01:36:50.491Z,27.60
2019-04-20T01:39:39.931Z,27.60
2019-04-20T01:42:30.327Z,27.70
2019-04-20T01:45:29.299Z,27.70
2019-04-20T01:48:28.722Z,27.70
2019-04-20T01:51:26.379Z,27.70
2019-04-20T01:54:31.598Z,27.70
2019-04-20T01:57:36.386Z,27.80
2019-04-20T02:00:53.039Z,27.80
2019-04-20T02:04:22.439Z,27.80
2019-04-20T02:07:10.206Z,27.90
2019-04-20T02:10:08.214Z,27.90
2019-04-20T02:13:03.027Z,27.90
2019-04-20T02:15:59.265Z,27.90
2019-04-20T02:19:10.693Z,28.00
2019-04-20T02:22:03.829Z,28.00
2019-04-20T02:24:44.803Z,28.00
2019-04-20T02:27:48.153Z,28.00
2019-04-20T02:31:15.596Z,28.00
2019-04-20T02:34:15.385Z,28.00
2019-04-20T02:37:33.359Z,28.10
2019-04-20T02:45:50.558Z,28.20
2019-04-20T02:49:01.200Z,28.30
2019-04-20T03:12:16.812Z,28.30
2019-04-20T03:15:04.437Z,29.10
2019-04-20T03:18:11.972Z,29.10
2019-04-20T03:21:08.209Z,29.00
2019-04-20T03:24:07.009Z,29.00
2019-04-20T03:27:14.544Z,29.00
2019-04-20T03:30:40.177Z,29.00
2019-04-20T03:33:24.107Z,29.00
2019-04-20T03:36:19.597Z,28.90
2019-04-20T03:39:03.628Z,29.00
2019-04-20T03:41:43.422Z,29.00
2019-04-20T03:44:35.816Z,29.00
2019-04-20T03:47:38.446Z,29.00
2019-04-20T03:50:49.202Z,29.10
2019-04-20T03:53:39.389Z,29.10
2019-04-20T03:56:46.341Z,29.10
2019-04-20T03:59:48.457Z,29.20
2019-04-20T04:03:08.476Z,29.20
2019-04-20T04:05:55.740Z,29.20
2019-04-20T04:08:55.051Z,29.20
2019-04-20T04:11:48.890Z,29.30
2019-04-20T04:14:30.522Z,29.40
2019-04-20T04:17:31.658Z,29.40
2019-04-20T04:20:22.400Z,29.50
2019-04-20T04:23:33.674Z,29.50
2019-04-20T04:26:30.028Z,29.60
2019-04-20T04:29:34.532Z,29.60
2019-04-20T04:32:46.770Z,29.70
2019-04-20T04:35:14.176Z,29.70
2019-04-20T04:38:15.264Z,29.80
2019-04-20T04:44:04.575Z,29.80
2019-04-20T04:46:51.098Z,29.90
2019-04-20T04:49:42.960Z,29.90
2019-04-20T04:52:45.394Z,29.90
2019-04-20T04:55:41.992Z,30.00
2019-04-20T04:58:29.691Z,30.10
2019-04-20T05:01:28.532Z,30.10
2019-04-20T05:04:51.123Z,30.20
2019-04-20T05:07:46.054Z,30.30
2019-04-20T05:10:24.793Z,30.30
2019-04-20T05:13:20.158Z,30.40
2019-04-20T05:16:35.975Z,30.50
2019-04-20T05:19:38.200Z,30.50
2019-04-20T05:22:32.148Z,30.60
2019-04-20T05:29:06.454Z,30.70
2019-04-20T05:32:12.466Z,30.90
2019-04-20T05:35:47.222Z,31.00
2019-04-20T05:38:59.032Z,31.00
2019-04-20T05:41:56.811Z,31.10
2019-04-20T05:45:25.205Z,31.20
2019-04-20T05:49:00.438Z,31.20
2019-04-20T05:52:24.062Z,31.30
2019-04-20T05:55:27.913Z,31.30
2019-04-20T05:58:35.788Z,31.40
2019-04-20T06:01:42.364Z,31.50
2019-04-20T06:05:04.430Z,31.50
2019-04-20T06:07:59.180Z,31.60
2019-04-20T06:11:07.963Z,31.70
2019-04-20T06:14:13.305Z,31.70
2019-04-20T06:17:34.491Z,31.80
2019-04-20T06:20:31.297Z,31.90
2019-04-20T06:23:47.228Z,32.00
2019-04-20T06:27:08.132Z,32.10
2019-04-20T06:30:06.906Z,32.10
2019-04-20T06:34:00.285Z,32.20
2019-04-20T06:37:02.548Z,32.30
2019-04-20T06:39:54.421Z,32.40
2019-04-20T06:42:54.931Z,32.40
2019-04-20T06:46:10.351Z,32.50
2019-04-20T06:49:17.330Z,32.60
2019-04-20T06:52:42.487Z,32.70
2019-04-20T06:55:59.170Z,32.70
2019-04-20T06:59:12.548Z,32.70
2019-04-20T07:02:56.353Z,32.80
2019-04-20T07:06:31.737Z,32.90
2019-04-20T07:09:46.455Z,32.90
2019-04-20T07:13:07.682Z,33.10
2019-04-20T07:16:44.762Z,33.20
2019-04-20T07:20:02.757Z,33.30
2019-04-20T07:23:18.257Z,33.40
2019-04-20T07:26:12.835Z,33.40
2019-04-20T07:29:20.987Z,33.50
2019-04-20T07:32:13.186Z,33.60
2019-04-20T07:35:25.108Z,33.60
2019-04-20T07:41:32.955Z,33.80
2019-04-20T07:44:42.580Z,33.90
2019-04-20T07:47:40.624Z,34.00
2019-04-20T07:50:25.107Z,34.00
2019-04-20T07:53:32.087Z,34.10
2019-04-20T07:56:42.489Z,34.20
2019-04-20T08:00:00.348Z,34.30
2019-04-20T08:03:46.659Z,34.40
2019-04-20T08:06:38.075Z,34.50
2019-04-20T08:09:39.363Z,34.70
2019-04-20T08:16:08.703Z,35.00
2019-04-20T08:18:59.114Z,35.40
2019-04-20T08:22:12.335Z,35.70
2019-04-20T08:25:22.478Z,36.00
2019-04-20T08:28:22.705Z,36.20
2019-04-20T08:32:16.148Z,36.30
2019-04-20T08:35:39.765Z,36.30
2019-04-20T08:39:16.576Z,36.30
2019-04-20T08:46:05.309Z,36.30
2019-04-20T08:49:03.021Z,36.50
2019-04-20T08:52:33.138Z,36.60
2019-04-20T08:55:19.598Z,36.80
2019-04-20T08:59:23.330Z,36.90
2019-04-20T09:02:47.722Z,37.00
2019-04-20T09:05:49.047Z,37.30
2019-04-20T09:09:07.626Z,37.40
2019-04-20T09:12:01.244Z,37.60
2019-04-20T09:14:41.282Z,37.90
2019-04-20T09:17:47.491Z,38.40
2019-04-20T09:20:48.735Z,38.80
2019-04-20T09:23:54.117Z,39.30
2019-04-20T09:26:49.007Z,39.70
2019-04-20T09:29:40.436Z,40.20
2019-04-20T09:32:51.742Z,40.50
2019-04-20T09:35:49.561Z,40.50
2019-04-20T09:39:05.946Z,40.60
2019-04-20T09:42:13.910Z,40.60
2019-04-20T09:45:18.099Z,40.60
2019-04-20T09:48:19.936Z,40.50
2019-04-20T09:51:25.821Z,40.50
2019-04-20T09:54:48.256Z,40.60
2019-04-20T09:57:30.947Z,40.80
2019-04-20T10:00:25.774Z,41.00
2019-04-20T10:03:10.779Z,41.10
2019-04-20T10:06:07.567Z,41.00
2019-04-20T10:09:07.335Z,40.80
2019-04-20T10:12:11.156Z,40.60
2019-04-20T10:15:15.957Z,40.40
2019-04-20T10:18:07.793Z,40.20
2019-04-20T10:21:03.350Z,39.90
2019-04-20T10:24:00.692Z,39.70
2019-04-20T10:26:56.586Z,39.60
2019-04-20T10:29:53.580Z,39.50
2019-04-20T10:32:51.964Z,39.50
2019-04-20T10:35:49.646Z,39.50
2019-04-20T10:38:46.814Z,39.40
2019-04-20T10:41:49.081Z,39.20
2019-04-20T10:44:39.403Z,39.00
2019-04-20T10:47:34.933Z,38.70
2019-04-20T10:50:38.952Z,38.40
2019-04-20T10:53:33.219Z,38.20
2019-04-20T10:56:29.710Z,37.90
2019-04-20T10:59:31.866Z,37.60
2019-04-20T11:02:26.084Z,37.40
2019-04-20T11:05:20.905Z,37.20
2019-04-20T11:08:16.866Z,37.00
2019-04-20T11:11:26.546Z,36.80
2019-04-20T11:14:35.203Z,36.70
2019-04-20T11:17:29.747Z,36.50
2019-04-20T11:20:23.839Z,36.40
2019-04-20T11:23:20.361Z,36.30
2019-04-20T11:26:16.476Z,36.20
2019-04-20T11:29:22.391Z,36.00
2019-04-20T11:32:48.420Z,35.90
2019-04-20T11:35:59.160Z,35.90
2019-04-20T11:39:13.043Z,35.80
2019-04-20T11:42:19.560Z,35.60
2019-04-20T11:45:42.618Z,35.60
2019-04-20T11:49:07.888Z,35.40
2019-04-20T11:52:06.076Z,35.30
2019-04-20T11:55:12.533Z,35.30
2019-04-20T11:58:12.141Z,35.20
2019-04-20T12:01:44.064Z,35.20
2019-04-20T12:04:52.219Z,35.10
2019-04-20T12:08:16.548Z,35.20
2019-04-20T12:11:33.024Z,35.20
2019-04-20T12:14:23.034Z,35.10
2019-04-20T12:17:26.396Z,35.00
2019-04-20T12:20:38.776Z,35.00
2019-04-20T12:24:07.772Z,34.90
2019-04-20T12:27:24.995Z,34.80
2019-04-20T12:30:43.886Z,34.70
2019-04-20T12:33:48.317Z,34.60
2019-04-20T12:37:11.221Z,34.60
2019-04-20T12:40:23.977Z,34.50
2019-04-20T12:43:29.854Z,34.40
2019-04-20T12:46:32.312Z,34.30
2019-04-20T12:49:31.704Z,34.20
2019-04-20T12:52:34.557Z,34.10
2019-04-20T12:55:44.630Z,34.10
2019-04-20T12:58:47.392Z,34.00
2019-04-20T13:01:43.766Z,33.90
2019-04-20T13:04:49.104Z,33.80
2019-04-20T13:07:54.540Z,33.70
2019-04-20T13:10:52.779Z,33.70
2019-04-20T13:14:14.567Z,33.60
2019-04-20T13:17:16.738Z,33.60
2019-04-20T13:20:14.036Z,33.50
2019-04-20T13:23:09.264Z,33.50
2019-04-20T13:26:07.458Z,33.50
2019-04-20T13:29:03.065Z,33.40
2019-04-20T13:31:58.526Z,33.40
2019-04-20T13:34:56.132Z,33.40
2019-04-20T13:37:51.837Z,33.30
2019-04-20T13:40:55.752Z,33.30
2019-04-20T13:43:55.711Z,33.20
2019-04-20T13:46:49.123Z,33.20
2019-04-20T13:49:45.073Z,33.20
2019-04-20T13:52:40.569Z,33.10
2019-04-20T13:55:36.793Z,33.10
2019-04-20T13:58:53.932Z,33.00
2019-04-20T14:02:00.826Z,33.00
2019-04-20T14:05:02.706Z,33.00
2019-04-20T14:07:58.068Z,32.90
2019-04-20T14:10:53.690Z,32.90
2019-04-20T14:13:55.372Z,32.80
2019-04-20T14:16:45.416Z,32.80
2019-04-20T14:19:41.099Z,32.80
2019-04-20T14:22:36.915Z,32.80
2019-04-20T14:25:33.258Z,32.80
2019-04-20T14:28:29.095Z,32.70
2019-04-20T14:31:26.237Z,32.70
2019-04-20T14:34:22.689Z,32.70
2019-04-20T14:37:17.976Z,32.60
2019-04-20T14:40:14.575Z,32.60
2019-04-20T14:43:11.045Z,32.60
2019-04-20T14:46:08.407Z,32.50
2019-04-20T14:49:03.185Z,32.50
2019-04-20T14:52:00.683Z,32.50
2019-04-20T14:54:57.485Z,32.50
2019-04-20T14:57:53.188Z,32.40
2019-04-20T15:01:02.616Z,32.40
2019-04-20T15:04:05.820Z,32.40
2019-04-20T15:06:56.833Z,32.40
2019-04-20T15:09:52.982Z,32.40
2019-04-20T15:12:55.718Z,32.30
2019-04-20T15:15:46.371Z,32.30
2019-04-20T15:18:48.786Z,32.30
2019-04-20T15:21:51.438Z,32.20
2019-04-20T15:24:49.434Z,32.20
2019-04-20T15:27:46.308Z,32.20
2019-04-20T15:30:44.418Z,32.20
2019-04-20T15:33:41.055Z,32.20
2019-04-20T15:36:38.160Z,32.10
2019-04-20T15:39:36.945Z,32.10
2019-04-20T15:42:33.069Z,32.10
2019-04-20T15:45:29.424Z,32.10
2019-04-20T15:48:25.940Z,32.10
2019-04-20T15:51:21.762Z,32.10
2019-04-20T15:54:17.828Z,32.10
2019-04-20T15:57:19.641Z,32.00
2019-04-20T16:00:12.168Z,32.00
2019-04-20T16:03:21.411Z,32.00
2019-04-20T16:06:19.009Z,32.00
2019-04-20T16:09:15.629Z,32.00
2019-04-20T16:12:11.012Z,31.90
2019-04-20T16:15:09.441Z,31.90
2019-04-20T16:18:07.296Z,31.90
2019-04-20T16:21:07.925Z,31.90
2019-04-20T16:24:19.726Z,31.90
2019-04-20T16:27:33.964Z,31.90
2019-04-20T16:30:31.826Z,31.90
2019-04-20T16:33:28.499Z,31.80
2019-04-20T16:36:23.561Z,31.80
2019-04-20T16:39:20.408Z,31.80
2019-04-20T16:42:16.597Z,31.80
2019-04-20T16:45:12.487Z,31.80
2019-04-20T16:48:08.710Z,31.80
2019-04-20T16:51:04.922Z,31.80
2019-04-20T16:54:01.459Z,31.80
2019-04-20T16:56:56.933Z,31.70
2019-04-20T16:59:55.717Z,31.70
2019-04-20T17:02:50.021Z,31.70
2019-04-20T17:05:45.329Z,31.70
2019-04-20T17:08:42.802Z,31.70
2019-04-20T17:11:37.155Z,31.70
2019-04-20T17:14:33.803Z,31.60
2019-04-20T17:17:29.467Z,31.60
2019-04-20T17:20:26.926Z,31.50
2019-04-20T17:23:23.471Z,31.50
2019-04-20T17:26:36.744Z,31.50
2019-04-20T17:29:33.693Z,31.50
2019-04-20T17:32:31.596Z,31.40
2019-04-20T17:35:40.581Z,31.40
2019-04-20T17:38:22.656Z,31.40
2019-04-20T17:41:40.174Z,31.40
2019-04-20T17:44:34.289Z,31.30
2019-04-20T17:47:31.416Z,31.30
2019-04-20T17:50:27.046Z,31.30
2019-04-20T17:53:13.902Z,31.30
2019-04-20T17:56:01.950Z,31.30
2019-04-20T17:58:56.351Z,31.30
2019-04-20T18:02:24.977Z,31.30
2019-04-20T18:05:44.374Z,31.30
2019-04-20T18:08:35.667Z,31.30
2019-04-20T18:11:21.346Z,31.30
2019-04-20T18:14:34.232Z,31.20
2019-04-20T18:17:40.336Z,31.20
2019-04-20T18:20:48.524Z,31.20
2019-04-20T18:23:47.764Z,31.30
2019-04-20T18:26:59.675Z,31.20
2019-04-20T18:29:52.798Z,31.20
2019-04-20T18:32:37.832Z,31.20
2019-04-20T18:35:34.919Z,31.20
2019-04-20T18:38:31.481Z,31.20
2019-04-20T18:41:34.168Z,31.20
2019-04-20T18:44:30.429Z,31.20
2019-04-20T18:47:40.578Z,31.10
2019-04-20T18:50:24.581Z,31.10
2019-04-20T18:53:19.218Z,31.10
2019-04-20T18:56:10.009Z,31.10
2019-04-20T18:59:05.407Z,31.10
2019-04-20T19:02:04.863Z,31.10
2019-04-20T19:04:59.933Z,31.10
2019-04-20T19:08:00.939Z,31.10
2019-04-20T19:10:57.931Z,31.00
2019-04-20T19:13:53.078Z,31.00
2019-04-20T19:17:04.545Z,31.00
2019-04-20T19:20:16.024Z,31.00
2019-04-20T19:23:12.353Z,31.00
2019-04-20T19:26:13.799Z,31.00
2019-04-20T19:29:14.259Z,31.00
2019-04-20T19:32:20.589Z,31.00
2019-04-20T19:35:04.652Z,31.00
2019-04-20T19:38:03.174Z,31.00
2019-04-20T19:40:59.424Z,31.00
2019-04-20T19:43:58.442Z,31.00
2019-04-20T19:47:03.602Z,31.00
2019-04-20T19:49:45.004Z,31.00
2019-04-20T19:52:56.092Z,31.00
2019-04-20T19:55:45.224Z,31.00
2019-04-20T19:58:35.880Z,30.90
2019-04-20T20:01:22.094Z,30.90
2019-04-20T20:04:19.580Z,30.90
2019-04-20T20:07:21.909Z,30.90
2019-04-20T20:10:11.136Z,30.90
2019-04-20T20:13:08.209Z,30.90
2019-04-20T20:16:10.676Z,30.90
2019-04-20T20:19:08.519Z,30.90
2019-04-20T20:22:09.394Z,30.80
2019-04-20T20:24:52.511Z,30.80
2019-04-20T20:27:54.362Z,30.80
2019-04-20T20:30:56.791Z,30.80
2019-04-20T20:33:55.838Z,30.80
2019-04-20T20:36:43.660Z,30.70
2019-04-20T20:39:35.133Z,30.80
2019-04-20T20:42:45.825Z,30.80
2019-04-20T20:45:33.637Z,30.70
2019-04-20T20:48:35.451Z,30.70
2019-04-20T20:51:44.263Z,30.70
2019-04-20T20:54:28.391Z,30.70
2019-04-20T20:57:16.559Z,30.70
2019-04-20T21:00:19.649Z,30.70
2019-04-20T21:03:06.011Z,30.70
2019-04-20T21:06:00.891Z,30.70
2019-04-20T21:08:59.921Z,30.70
2019-04-20T21:12:00.632Z,30.70
2019-04-20T21:14:49.541Z,30.70
2019-04-20T21:18:08.479Z,30.70
2019-04-20T21:21:00.390Z,30.70
2019-04-20T21:23:47.996Z,30.70
2019-04-20T21:26:39.189Z,30.70
2019-04-20T21:29:36.831Z,30.70
2019-04-20T21:32:28.201Z,30.60
2019-04-20T21:35:24.197Z,30.60
2019-04-20T21:38:21.824Z,30.60
2019-04-20T21:41:18.577Z,30.50
2019-04-20T21:44:15.625Z,30.50
2019-04-20T21:47:09.177Z,30.40
2019-04-20T21:50:21.390Z,30.40
2019-04-20T21:53:12.830Z,30.40
2019-04-20T21:55:57.529Z,30.40
2019-04-20T21:58:57.298Z,30.40
2019-04-20T22:01:58.504Z,30.30
2019-04-20T22:04:45.242Z,30.30
2019-04-20T22:07:40.792Z,30.20
2019-04-20T22:10:36.628Z,30.20
2019-04-20T22:13:37.695Z,30.20
2019-04-20T22:16:36.404Z,30.10
2019-04-20T22:19:35.981Z,30.10
2019-04-20T22:22:38.597Z,30.10
2019-04-20T22:25:39.140Z,30.10
2019-04-20T22:28:13.962Z,30.10
2019-04-20T22:31:09.613Z,30.00
2019-04-20T22:34:10.410Z,30.00
2019-04-20T22:37:02.139Z,30.00
2019-04-20T22:39:58.304Z,30.00
2019-04-20T22:42:57.802Z,30.00
2019-04-20T22:45:53.575Z,30.00
2019-04-20T22:48:55.192Z,30.00
2019-04-20T22:51:51.979Z,30.00
2019-04-20T22:54:54.764Z,30.00
2019-04-20T22:57:48.395Z,29.90
2019-04-20T23:00:40.700Z,29.90
2019-04-20T23:03:26.897Z,29.90
2019-04-20T23:06:25.292Z,29.90
2019-04-20T23:09:18.754Z,29.90
2019-04-20T23:12:18.911Z,29.80
2019-04-20T23:15:12.060Z,29.80
2019-04-20T23:18:08.321Z,29.80
2019-04-20T23:21:07.994Z,29.80
2019-04-20T23:24:03.778Z,29.70
2019-04-20T23:26:55.299Z,29.70
2019-04-20T23:29:51.152Z,29.70
2019-04-20T23:32:46.843Z,29.70
2019-04-20T23:35:48.984Z,29.70
2019-04-20T23:38:38.991Z,29.70
2019-04-20T23:41:35.690Z,29.70
2019-04-20T23:44:45.920Z,29.70
2019-04-20T23:47:53.233Z,29.70
2019-04-20T23:50:58.239Z,29.70
2019-04-20T23:53:51.210Z,29.60
2019-04-20T23:56:35.830Z,29.60
2019-04-20T23:59:37.551Z,29.60
